sensor_id;sensor_type;location;lat;lon;timestamp;pressure;altitude;pressure_sealevel;temperature;humidity
50518;BME280;37075;44.084;2.962;2023-12-22T00:01:22;98125.00;;;11.46;66.58
50518;BME280;37075;44.084;2.962;2023-12-22T00:04:08;98138.66;;;11.46;66.53
50518;BME280;37075;44.084;2.962;2023-12-22T00:06:56;98147.47;;;11.42;66.66
50518;BME280;37075;44.084;2.962;2023-12-22T00:09:42;98163.53;;;11.44;66.66
50518;BME280;37075;44.084;2.962;2023-12-22T00:12:27;98176.69;;;11.51;66.39
50518;BME280;37075;44.084;2.962;2023-12-22T00:15:14;98179.56;;;11.54;66.63
50518;BME280;37075;44.084;2.962;2023-12-22T00:18:00;98185.56;;;11.48;66.82
50518;BME280;37075;44.084;2.962;2023-12-22T00:20:45;98179.63;;;11.46;66.70
50518;BME280;37075;44.084;2.962;2023-12-22T00:23:33;98171.72;;;11.44;66.96
50518;BME280;37075;44.084;2.962;2023-12-22T00:26:20;98186.03;;;11.41;66.69
50518;BME280;37075;44.084;2.962;2023-12-22T00:29:06;98188.16;;;11.35;65.50
50518;BME280;37075;44.084;2.962;2023-12-22T00:31:52;98178.50;;;11.38;66.01
50518;BME280;37075;44.084;2.962;2023-12-22T00:34:38;98193.75;;;11.39;64.45
50518;BME280;37075;44.084;2.962;2023-12-22T00:37:23;98200.53;;;11.33;62.95
50518;BME280;37075;44.084;2.962;2023-12-22T00:40:11;98203.41;;;11.36;62.74
50518;BME280;37075;44.084;2.962;2023-12-22T00:42:58;98213.53;;;11.36;61.92
50518;BME280;37075;44.084;2.962;2023-12-22T00:45:43;98237.28;;;11.44;61.43
50518;BME280;37075;44.084;2.962;2023-12-22T00:48:29;98227.31;;;11.48;62.22
50518;BME280;37075;44.084;2.962;2023-12-22T00:51:15;98213.34;;;11.50;61.65
50518;BME280;37075;44.084;2.962;2023-12-22T00:54:02;98230.19;;;11.52;61.70
50518;BME280;37075;44.084;2.962;2023-12-22T00:56:50;98254.13;;;11.55;61.50
50518;BME280;37075;44.084;2.962;2023-12-22T00:59:36;98238.25;;;11.48;62.00
50518;BME280;37075;44.084;2.962;2023-12-22T01:02:21;98231.19;;;11.47;61.88
50518;BME280;37075;44.084;2.962;2023-12-22T01:05:07;98223.78;;;11.48;62.07
50518;BME280;37075;44.084;2.962;2023-12-22T01:07:54;98240.81;;;11.53;61.84
50518;BME280;37075;44.084;2.962;2023-12-22T01:10:39;98238.06;;;11.53;61.67
50518;BME280;37075;44.084;2.962;2023-12-22T01:13:27;98231.34;;;11.51;61.91
50518;BME280;37075;44.084;2.962;2023-12-22T01:16:13;98226.47;;;11.56;61.73
50518;BME280;37075;44.084;2.962;2023-12-22T01:19:00;98229.41;;;11.51;61.23
50518;BME280;37075;44.084;2.962;2023-12-22T01:21:45;98236.47;;;11.43;61.53
50518;BME280;37075;44.084;2.962;2023-12-22T01:24:32;98230.38;;;11.47;61.32
50518;BME280;37075;44.084;2.962;2023-12-22T01:27:18;98236.31;;;11.49;61.46
50518;BME280;37075;44.084;2.962;2023-12-22T01:30:07;98234.88;;;11.42;61.84
50518;BME280;37075;44.084;2.962;2023-12-22T01:32:53;98233.13;;;11.47;61.95
50518;BME280;37075;44.084;2.962;2023-12-22T01:35:39;98218.16;;;11.44;62.22
50518;BME280;37075;44.084;2.962;2023-12-22T01:38:25;98205.63;;;11.43;62.18
50518;BME280;37075;44.084;2.962;2023-12-22T01:41:11;98212.88;;;11.39;62.42
50518;BME280;37075;44.084;2.962;2023-12-22T01:43:57;98212.06;;;11.38;62.45
50518;BME280;37075;44.084;2.962;2023-12-22T01:46:45;98224.31;;;11.32;62.64
50518;BME280;37075;44.084;2.962;2023-12-22T01:49:31;98215.97;;;11.29;62.91
50518;BME280;37075;44.084;2.962;2023-12-22T01:52:17;98217.44;;;11.26;62.60
50518;BME280;37075;44.084;2.962;2023-12-22T01:55:05;98210.84;;;11.27;62.58
50518;BME280;37075;44.084;2.962;2023-12-22T01:57:51;98201.19;;;11.30;62.25
50518;BME280;37075;44.084;2.962;2023-12-22T02:00:37;98191.69;;;11.36;62.03
50518;BME280;37075;44.084;2.962;2023-12-22T02:03:25;98196.19;;;11.32;61.94
50518;BME280;37075;44.084;2.962;2023-12-22T02:06:11;98208.25;;;11.31;61.51
50518;BME280;37075;44.084;2.962;2023-12-22T02:08:57;98208.72;;;11.33;61.90
50518;BME280;37075;44.084;2.962;2023-12-22T02:11:44;98211.47;;;11.33;61.33
50518;BME280;37075;44.084;2.962;2023-12-22T02:14:30;98214.34;;;11.36;60.81
50518;BME280;37075;44.084;2.962;2023-12-22T02:17:21;98212.72;;;11.35;60.66
50518;BME280;37075;44.084;2.962;2023-12-22T02:20:11;98219.78;;;11.36;60.64
50518;BME280;37075;44.084;2.962;2023-12-22T02:22:58;98221.06;;;11.39;60.98
50518;BME280;37075;44.084;2.962;2023-12-22T02:25:45;98212.41;;;11.46;60.74
50518;BME280;37075;44.084;2.962;2023-12-22T02:28:32;98216.41;;;11.48;60.65
50518;BME280;37075;44.084;2.962;2023-12-22T02:31:27;98229.59;;;11.46;60.37
50518;BME280;37075;44.084;2.962;2023-12-22T02:34:19;98217.69;;;11.42;60.24
50518;BME280;37075;44.084;2.962;2023-12-22T02:37:07;98218.00;;;11.40;60.37
50518;BME280;37075;44.084;2.962;2023-12-22T02:39:56;98209.19;;;11.35;60.68
50518;BME280;37075;44.084;2.962;2023-12-22T02:42:42;98209.19;;;11.35;60.94
50518;BME280;37075;44.084;2.962;2023-12-22T02:45:28;98194.41;;;11.36;60.68
50518;BME280;37075;44.084;2.962;2023-12-22T02:48:15;98205.66;;;11.34;60.91
50518;BME280;37075;44.084;2.962;2023-12-22T02:51:00;98189.97;;;11.23;61.39
50518;BME280;37075;44.084;2.962;2023-12-22T02:53:46;98193.66;;;11.27;61.24
50518;BME280;37075;44.084;2.962;2023-12-22T02:56:33;98193.31;;;11.28;61.74
50518;BME280;37075;44.084;2.962;2023-12-22T02:59:20;98206.03;;;11.24;62.23
50518;BME280;37075;44.084;2.962;2023-12-22T03:02:05;98197.38;;;11.22;62.34
50518;BME280;37075;44.084;2.962;2023-12-22T03:04:51;98209.25;;;11.26;62.59
50518;BME280;37075;44.084;2.962;2023-12-22T03:07:37;98214.66;;;11.35;62.39
50518;BME280;37075;44.084;2.962;2023-12-22T03:10:23;98189.44;;;11.38;62.33
50518;BME280;37075;44.084;2.962;2023-12-22T03:13:10;98192.16;;;11.38;62.70
50518;BME280;37075;44.084;2.962;2023-12-22T03:15:56;98182.88;;;11.30;63.18
50518;BME280;37075;44.084;2.962;2023-12-22T03:18:43;98200.75;;;11.19;63.70
50518;BME280;37075;44.084;2.962;2023-12-22T03:21:28;98209.91;;;11.15;63.77
50518;BME280;37075;44.084;2.962;2023-12-22T03:24:14;98215.22;;;11.11;64.20
50518;BME280;37075;44.084;2.962;2023-12-22T03:27:00;98201.88;;;11.09;64.56
50518;BME280;37075;44.084;2.962;2023-12-22T03:29:47;98197.41;;;11.05;64.67
50518;BME280;37075;44.084;2.962;2023-12-22T03:32:33;98191.31;;;10.99;65.02
50518;BME280;37075;44.084;2.962;2023-12-22T03:35:19;98191.31;;;10.99;64.69
50518;BME280;37075;44.084;2.962;2023-12-22T03:38:05;98194.69;;;10.96;64.96
50518;BME280;37075;44.084;2.962;2023-12-22T03:40:51;98185.53;;;10.92;65.04
50518;BME280;37075;44.084;2.962;2023-12-22T03:43:37;98176.88;;;10.90;65.21
50518;BME280;37075;44.084;2.962;2023-12-22T03:46:24;98168.06;;;10.93;65.29
50518;BME280;37075;44.084;2.962;2023-12-22T03:49:10;98184.09;;;10.95;65.26
50518;BME280;37075;44.084;2.962;2023-12-22T03:51:56;98163.69;;;10.92;65.05
50518;BME280;37075;44.084;2.962;2023-12-22T03:54:42;98169.00;;;10.89;65.04
50518;BME280;37075;44.084;2.962;2023-12-22T03:57:28;98176.06;;;10.90;64.99
50518;BME280;37075;44.084;2.962;2023-12-22T04:00:15;98174.63;;;10.92;64.79
50518;BME280;37075;44.084;2.962;2023-12-22T04:03:03;98166.75;;;10.91;64.61
50518;BME280;37075;44.084;2.962;2023-12-22T04:05:49;98165.97;;;10.90;64.82
50518;BME280;37075;44.084;2.962;2023-12-22T04:08:35;98168.88;;;10.94;64.55
50518;BME280;37075;44.084;2.962;2023-12-22T04:11:21;98176.72;;;10.95;64.69
50518;BME280;37075;44.084;2.962;2023-12-22T04:14:07;98173.19;;;10.95;64.35
50518;BME280;37075;44.084;2.962;2023-12-22T04:16:53;98191.16;;;10.96;64.42
50518;BME280;37075;44.084;2.962;2023-12-22T04:19:40;98194.22;;;10.94;64.35
50518;BME280;37075;44.084;2.962;2023-12-22T04:22:26;98188.91;;;10.98;63.91
50518;BME280;37075;44.084;2.962;2023-12-22T04:25:12;98189.06;;;11.01;63.74
50518;BME280;37075;44.084;2.962;2023-12-22T04:27:58;98184.38;;;11.10;63.61
50518;BME280;37075;44.084;2.962;2023-12-22T04:30:44;98202.53;;;11.06;62.49
50518;BME280;37075;44.084;2.962;2023-12-22T04:33:30;98204.78;;;11.04;62.58
50518;BME280;37075;44.084;2.962;2023-12-22T04:36:17;98189.38;;;11.00;62.60
50518;BME280;37075;44.084;2.962;2023-12-22T04:39:03;98215.38;;;11.06;62.52
50518;BME280;37075;44.084;2.962;2023-12-22T04:41:49;98197.72;;;11.03;62.38
50518;BME280;37075;44.084;2.962;2023-12-22T04:44:35;98205.91;;;11.03;62.58
50518;BME280;37075;44.084;2.962;2023-12-22T04:47:21;98191.63;;;11.06;62.41
50518;BME280;37075;44.084;2.962;2023-12-22T04:50:07;98186.47;;;11.05;62.02
50518;BME280;37075;44.084;2.962;2023-12-22T04:52:54;98186.34;;;11.01;62.31
50518;BME280;37075;44.084;2.962;2023-12-22T04:55:40;98177.03;;;11.02;62.06
50518;BME280;37075;44.084;2.962;2023-12-22T04:58:26;98166.09;;;11.02;62.43
50518;BME280;37075;44.084;2.962;2023-12-22T05:01:12;98167.41;;;10.96;62.12
50518;BME280;37075;44.084;2.962;2023-12-22T05:03:58;98158.56;;;10.91;62.51
50518;BME280;37075;44.084;2.962;2023-12-22T05:06:44;98182.19;;;10.87;62.50
50518;BME280;37075;44.084;2.962;2023-12-22T05:09:32;98182.81;;;10.84;62.70
50518;BME280;37075;44.084;2.962;2023-12-22T05:12:18;98187.97;;;10.85;62.32
50518;BME280;37075;44.084;2.962;2023-12-22T05:15:05;98182.50;;;10.85;62.11
50518;BME280;37075;44.084;2.962;2023-12-22T05:17:52;98183.78;;;10.88;61.85
50518;BME280;37075;44.084;2.962;2023-12-22T05:20:38;98209.78;;;10.85;62.25
50518;BME280;37075;44.084;2.962;2023-12-22T05:23:24;98211.25;;;10.82;62.53
50518;BME280;37075;44.084;2.962;2023-12-22T05:26:16;98198.69;;;10.90;62.38
50518;BME280;37075;44.084;2.962;2023-12-22T05:29:02;98209.94;;;10.89;62.28
50518;BME280;37075;44.084;2.962;2023-12-22T05:31:48;98226.78;;;10.91;62.57
50518;BME280;37075;44.084;2.962;2023-12-22T05:34:34;98226.66;;;10.96;62.45
50518;BME280;37075;44.084;2.962;2023-12-22T05:37:21;98232.72;;;10.93;62.89
50518;BME280;37075;44.084;2.962;2023-12-22T05:40:07;98226.47;;;10.92;62.93
50518;BME280;37075;44.084;2.962;2023-12-22T05:42:56;98252.97;;;10.92;62.84
50518;BME280;37075;44.084;2.962;2023-12-22T05:45:41;98242.69;;;10.89;63.02
50518;BME280;37075;44.084;2.962;2023-12-22T05:48:28;98221.34;;;10.91;62.77
50518;BME280;37075;44.084;2.962;2023-12-22T05:51:14;98234.97;;;10.91;62.69
50518;BME280;37075;44.084;2.962;2023-12-22T05:54:00;98235.63;;;10.88;62.73
50518;BME280;37075;44.084;2.962;2023-12-22T05:56:45;98216.19;;;10.89;62.48
50518;BME280;37075;44.084;2.962;2023-12-22T05:59:33;98236.09;;;10.90;62.55
50518;BME280;37075;44.084;2.962;2023-12-22T06:02:19;98244.28;;;10.90;62.32
50518;BME280;37075;44.084;2.962;2023-12-22T06:05:05;98250.88;;;10.97;62.63
50518;BME280;37075;44.084;2.962;2023-12-22T06:07:51;98255.88;;;10.95;62.34
50518;BME280;37075;44.084;2.962;2023-12-22T06:10:37;98256.34;;;10.97;62.43
50518;BME280;37075;44.084;2.962;2023-12-22T06:13:23;98249.28;;;10.96;62.48
50518;BME280;37075;44.084;2.962;2023-12-22T06:16:13;98249.75;;;10.98;62.40
50518;BME280;37075;44.084;2.962;2023-12-22T06:19:00;98268.88;;;10.98;62.61
50518;BME280;37075;44.084;2.962;2023-12-22T06:21:46;98247.84;;;10.99;62.74
50518;BME280;37075;44.084;2.962;2023-12-22T06:24:34;98234.66;;;11.01;62.72
50518;BME280;37075;44.084;2.962;2023-12-22T06:27:20;98245.44;;;10.97;63.06
50518;BME280;37075;44.084;2.962;2023-12-22T06:30:07;98262.59;;;10.98;63.69
50518;BME280;37075;44.084;2.962;2023-12-22T06:32:54;98265.81;;;10.91;64.79
50518;BME280;37075;44.084;2.962;2023-12-22T06:35:40;98278.16;;;10.89;65.12
50518;BME280;37075;44.084;2.962;2023-12-22T06:38:26;98283.47;;;10.85;65.89
50518;BME280;37075;44.084;2.962;2023-12-22T06:41:19;98277.22;;;10.76;66.28
50518;BME280;37075;44.084;2.962;2023-12-22T06:44:05;98279.78;;;10.72;66.84
50518;BME280;37075;44.084;2.962;2023-12-22T06:46:51;98268.72;;;10.77;66.08
50518;BME280;37075;44.084;2.962;2023-12-22T06:49:38;98270.63;;;10.77;66.04
50518;BME280;37075;44.084;2.962;2023-12-22T06:52:24;98264.84;;;10.78;65.98
50518;BME280;37075;44.084;2.962;2023-12-22T06:55:10;98266.63;;;10.83;65.97
50518;BME280;37075;44.084;2.962;2023-12-22T06:57:56;98271.91;;;10.79;66.18
50518;BME280;37075;44.084;2.962;2023-12-22T07:00:42;98281.88;;;10.75;66.47
50518;BME280;37075;44.084;2.962;2023-12-22T07:03:28;98282.03;;;10.79;66.08
50518;BME280;37075;44.084;2.962;2023-12-22T07:06:16;98285.72;;;10.74;66.40
50518;BME280;37075;44.084;2.962;2023-12-22T07:09:27;98290.22;;;10.79;66.21
50518;BME280;37075;44.084;2.962;2023-12-22T07:12:14;98289.09;;;10.80;65.87
50518;BME280;37075;44.084;2.962;2023-12-22T07:14:59;98284.28;;;10.77;65.34
50518;BME280;37075;44.084;2.962;2023-12-22T07:28:13;98294.06;;;10.87;64.35
50518;BME280;37075;44.084;2.962;2023-12-22T07:31:00;98303.22;;;10.91;64.11
50518;BME280;37075;44.084;2.962;2023-12-22T07:33:46;98305.63;;;10.92;64.20
50518;BME280;37075;44.084;2.962;2023-12-22T07:36:31;98303.88;;;10.96;64.24
50518;BME280;37075;44.084;2.962;2023-12-22T07:39:17;98310.59;;;10.90;64.56
50518;BME280;37075;44.084;2.962;2023-12-22T07:42:04;98319.44;;;10.96;64.67
50518;BME280;37075;44.084;2.962;2023-12-22T07:44:52;98315.28;;;10.98;64.70
50518;BME280;37075;44.084;2.962;2023-12-22T07:47:38;98326.34;;;11.02;64.66
50518;BME280;37075;44.084;2.962;2023-12-22T07:50:24;98325.53;;;11.01;65.13
50518;BME280;37075;44.084;2.962;2023-12-22T07:53:10;98331.00;;;11.01;64.82
50518;BME280;37075;44.084;2.962;2023-12-22T07:55:55;98340.31;;;11.00;64.70
50518;BME280;37075;44.084;2.962;2023-12-22T07:58:43;98336.47;;;11.01;64.13
50518;BME280;37075;44.084;2.962;2023-12-22T08:01:31;98314.63;;;11.01;64.35
50518;BME280;37075;44.084;2.962;2023-12-22T08:04:17;98332.28;;;11.04;64.33
50518;BME280;37075;44.084;2.962;2023-12-22T08:07:03;98328.09;;;11.06;63.85
50518;BME280;37075;44.084;2.962;2023-12-22T08:09:49;98345.59;;;11.14;63.63
50518;BME280;37075;44.084;2.962;2023-12-22T08:12:35;98339.34;;;11.13;63.59
50518;BME280;37075;44.084;2.962;2023-12-22T08:15:21;98343.81;;;11.18;63.58
50518;BME280;37075;44.084;2.962;2023-12-22T08:18:09;98343.53;;;11.20;63.19
50518;BME280;37075;44.084;2.962;2023-12-22T08:20:54;98354.13;;;11.21;63.30
50518;BME280;37075;44.084;2.962;2023-12-22T08:23:40;98368.59;;;11.22;62.70
50518;BME280;37075;44.084;2.962;2023-12-22T08:26:26;98361.19;;;11.22;63.05
50518;BME280;37075;44.084;2.962;2023-12-22T08:29:13;98369.72;;;11.21;62.38
50518;BME280;37075;44.084;2.962;2023-12-22T08:32:00;98368.25;;;11.23;62.63
50518;BME280;37075;44.084;2.962;2023-12-22T08:34:48;98374.34;;;11.29;63.00
50518;BME280;37075;44.084;2.962;2023-12-22T08:37:33;98380.78;;;11.33;63.02
50518;BME280;37075;44.084;2.962;2023-12-22T08:40:19;98386.56;;;11.31;63.43
50518;BME280;37075;44.084;2.962;2023-12-22T08:43:10;98388.97;;;11.33;63.68
50518;BME280;37075;44.084;2.962;2023-12-22T08:45:55;98383.34;;;11.29;64.25
50518;BME280;37075;44.084;2.962;2023-12-22T08:48:42;98379.81;;;11.20;64.98
50518;BME280;37075;44.084;2.962;2023-12-22T08:51:29;98382.84;;;11.19;64.89
50518;BME280;37075;44.084;2.962;2023-12-22T08:54:15;98383.34;;;11.21;64.55
50518;BME280;37075;44.084;2.962;2023-12-22T08:57:02;98379.97;;;11.24;63.65
50518;BME280;37075;44.084;2.962;2023-12-22T08:59:48;98393.16;;;11.22;63.35
50518;BME280;37075;44.084;2.962;2023-12-22T09:02:34;98398.13;;;11.28;62.74
50518;BME280;37075;44.084;2.962;2023-12-22T09:05:20;98402.94;;;11.31;62.14
50518;BME280;37075;44.084;2.962;2023-12-22T09:08:08;98391.38;;;11.34;62.38
50518;BME280;37075;44.084;2.962;2023-12-22T09:10:54;98409.03;;;11.37;61.60
50518;BME280;37075;44.084;2.962;2023-12-22T09:13:40;98409.53;;;11.39;61.91
50518;BME280;37075;44.084;2.962;2023-12-22T09:16:27;98407.94;;;11.47;62.22
50518;BME280;37075;44.084;2.962;2023-12-22T09:19:13;98403.44;;;11.51;61.74
50518;BME280;37075;44.084;2.962;2023-12-22T09:21:59;98414.34;;;11.59;61.72
50518;BME280;37075;44.084;2.962;2023-12-22T09:24:47;98406.78;;;11.65;60.88
50518;BME280;37075;44.084;2.962;2023-12-22T09:27:33;98410.16;;;11.62;60.68
50518;BME280;37075;44.084;2.962;2023-12-22T09:30:19;98408.69;;;11.64;60.02
50518;BME280;37075;44.084;2.962;2023-12-22T09:33:06;98414.16;;;11.64;59.65
50518;BME280;37075;44.084;2.962;2023-12-22T09:35:52;98428.63;;;11.65;59.96
50518;BME280;37075;44.084;2.962;2023-12-22T09:38:38;98418.19;;;11.67;59.77
50518;BME280;37075;44.084;2.962;2023-12-22T09:41:25;98419.47;;;11.69;59.97
50518;BME280;37075;44.084;2.962;2023-12-22T09:44:13;98440.69;;;11.72;59.85
50518;BME280;37075;44.084;2.962;2023-12-22T09:47:03;98437.97;;;11.72;59.92
50518;BME280;37075;44.084;2.962;2023-12-22T09:49:50;98437.78;;;11.78;59.03
50518;BME280;37075;44.084;2.962;2023-12-22T09:52:38;98428.97;;;11.72;59.10
50518;BME280;37075;44.084;2.962;2023-12-22T09:55:27;98428.78;;;11.77;58.99
50518;BME280;37075;44.084;2.962;2023-12-22T09:58:15;98430.72;;;11.77;59.26
50518;BME280;37075;44.084;2.962;2023-12-22T10:01:02;98444.88;;;11.87;59.02
50518;BME280;37075;44.084;2.962;2023-12-22T10:03:50;98446.16;;;11.90;58.82
50518;BME280;37075;44.084;2.962;2023-12-22T10:06:36;98445.50;;;11.93;58.88
50518;BME280;37075;44.084;2.962;2023-12-22T10:09:22;98450.81;;;11.98;59.09
50518;BME280;37075;44.084;2.962;2023-12-22T10:12:09;98445.97;;;12.03;59.26
50518;BME280;37075;44.084;2.962;2023-12-22T10:14:58;98462.06;;;12.05;58.55
50518;BME280;37075;44.084;2.962;2023-12-22T10:17:45;98461.44;;;11.99;58.88
50518;BME280;37075;44.084;2.962;2023-12-22T10:20:31;98421.72;;;12.02;58.87
50518;BME280;37075;44.084;2.962;2023-12-22T10:23:17;98445.03;;;11.99;59.16
50518;BME280;37075;44.084;2.962;2023-12-22T10:26:03;98426.19;;;12.07;58.80
50518;BME280;37075;44.084;2.962;2023-12-22T10:28:50;98425.03;;;12.16;58.58
50518;BME280;37075;44.084;2.962;2023-12-22T10:31:41;98413.91;;;12.21;58.77
50518;BME280;37075;44.084;2.962;2023-12-22T10:34:26;98431.28;;;12.25;59.08
50518;BME280;37075;44.084;2.962;2023-12-22T10:37:13;98418.22;;;12.31;59.08
50518;BME280;37075;44.084;2.962;2023-12-22T10:39:59;98428.84;;;12.32;59.26
50518;BME280;37075;44.084;2.962;2023-12-22T10:42:45;98422.38;;;12.37;59.37
50518;BME280;37075;44.084;2.962;2023-12-22T10:45:31;98422.53;;;12.41;59.49
50518;BME280;37075;44.084;2.962;2023-12-22T10:48:18;98433.00;;;12.39;59.72
50518;BME280;37075;44.084;2.962;2023-12-22T10:51:09;98418.84;;;12.37;60.06
50518;BME280;37075;44.084;2.962;2023-12-22T10:53:56;98404.50;;;12.40;60.08
50518;BME280;37075;44.084;2.962;2023-12-22T10:56:42;98413.03;;;12.38;60.41
50518;BME280;37075;44.084;2.962;2023-12-22T10:59:29;98406.59;;;12.43;59.92
50518;BME280;37075;44.084;2.962;2023-12-22T11:02:16;98403.84;;;12.43;59.84
50518;BME280;37075;44.084;2.962;2023-12-22T11:05:05;98415.94;;;12.42;60.24
50518;BME280;37075;44.084;2.962;2023-12-22T11:07:54;98396.59;;;12.47;60.34
50518;BME280;37075;44.084;2.962;2023-12-22T11:10:42;98400.13;;;12.47;60.88
50518;BME280;37075;44.084;2.962;2023-12-22T11:13:30;98407.38;;;12.43;61.31
50518;BME280;37075;44.084;2.962;2023-12-22T11:16:17;98388.09;;;12.40;61.22
50518;BME280;37075;44.084;2.962;2023-12-22T11:19:04;98398.72;;;12.41;61.16
50518;BME280;37075;44.084;2.962;2023-12-22T11:21:52;98377.16;;;12.40;60.20
50518;BME280;37075;44.084;2.962;2023-12-22T11:24:42;98375.22;;;12.40;60.10
50518;BME280;37075;44.084;2.962;2023-12-22T11:27:31;98382.44;;;12.45;59.08
50518;BME280;37075;44.084;2.962;2023-12-22T11:30:20;98378.63;;;12.37;59.63
50518;BME280;37075;44.084;2.962;2023-12-22T11:33:08;98380.34;;;12.42;59.87
50518;BME280;37075;44.084;2.962;2023-12-22T11:35:56;98368.09;;;12.48;59.77
50518;BME280;37075;44.084;2.962;2023-12-22T11:38:44;98357.44;;;12.55;60.14
50518;BME280;37075;44.084;2.962;2023-12-22T11:41:34;98355.31;;;12.60;59.90
50518;BME280;37075;44.084;2.962;2023-12-22T11:44:22;98363.34;;;12.65;59.27
50518;BME280;37075;44.084;2.962;2023-12-22T11:47:09;98351.78;;;12.60;59.26
50518;BME280;37075;44.084;2.962;2023-12-22T11:49:57;98354.06;;;12.58;59.23
50518;BME280;37075;44.084;2.962;2023-12-22T11:52:45;98330.34;;;12.62;59.74
50518;BME280;37075;44.084;2.962;2023-12-22T11:56:00;98334.03;;;12.66;59.40
50518;BME280;37075;44.084;2.962;2023-12-22T11:58:48;98334.56;;;12.59;59.93
50518;BME280;37075;44.084;2.962;2023-12-22T12:01:39;98333.22;;;12.65;60.16
50518;BME280;37075;44.084;2.962;2023-12-22T12:04:25;98321.81;;;12.63;60.05
50518;BME280;37075;44.084;2.962;2023-12-22T12:07:37;98335.84;;;12.62;60.17
50518;BME280;37075;44.084;2.962;2023-12-22T12:10:51;98330.28;;;12.71;60.43
50518;BME280;37075;44.084;2.962;2023-12-22T12:13:42;98338.16;;;12.72;60.69
50518;BME280;37075;44.084;2.962;2023-12-22T12:16:29;98322.75;;;12.68;60.93
50518;BME280;37075;44.084;2.962;2023-12-22T12:19:18;98324.50;;;12.72;61.45
50518;BME280;37075;44.084;2.962;2023-12-22T12:22:04;98322.22;;;12.74;60.93
50518;BME280;37075;44.084;2.962;2023-12-22T12:24:50;98322.03;;;12.79;60.85
50518;BME280;37075;44.084;2.962;2023-12-22T12:27:37;98320.03;;;12.88;60.60
50518;BME280;37075;44.084;2.962;2023-12-22T12:30:26;98312.41;;;12.94;60.82
50518;BME280;37075;44.084;2.962;2023-12-22T12:33:12;98312.06;;;12.95;60.41
50518;BME280;37075;44.084;2.962;2023-12-22T12:36:01;98305.34;;;12.93;60.78
50518;BME280;37075;44.084;2.962;2023-12-22T12:38:54;98296.66;;;12.91;61.07
50518;BME280;37075;44.084;2.962;2023-12-22T12:41:42;98280.81;;;12.96;61.36
50518;BME280;37075;44.084;2.962;2023-12-22T12:44:29;98273.28;;;12.93;61.23
50518;BME280;37075;44.084;2.962;2023-12-22T12:47:18;98265.06;;;12.93;61.20
50518;BME280;37075;44.084;2.962;2023-12-22T12:50:05;98261.88;;;12.91;61.44
50518;BME280;37075;44.084;2.962;2023-12-22T12:52:51;98263.94;;;12.94;61.65
50518;BME280;37075;44.084;2.962;2023-12-22T12:55:38;98265.19;;;12.97;61.98
50518;BME280;37075;44.084;2.962;2023-12-22T12:58:27;98271.00;;;12.95;62.39
50518;BME280;37075;44.084;2.962;2023-12-22T13:01:14;98265.88;;;12.94;62.64
50518;BME280;37075;44.084;2.962;2023-12-22T13:04:02;98262.06;;;12.86;63.12
50518;BME280;37075;44.084;2.962;2023-12-22T13:06:49;98267.88;;;12.85;63.49
50518;BME280;37075;44.084;2.962;2023-12-22T13:09:36;98254.19;;;12.85;63.53
50518;BME280;37075;44.084;2.962;2023-12-22T13:12:23;98255.22;;;12.80;63.82
50518;BME280;37075;44.084;2.962;2023-12-22T13:15:10;98260.47;;;12.85;63.76
50518;BME280;37075;44.084;2.962;2023-12-22T13:17:56;98261.41;;;12.89;62.76
50518;BME280;37075;44.084;2.962;2023-12-22T13:20:44;98254.78;;;12.90;61.94
50518;BME280;37075;44.084;2.962;2023-12-22T13:23:30;98265.41;;;12.92;60.57
50518;BME280;37075;44.084;2.962;2023-12-22T13:26:20;98261.66;;;12.96;60.20
50518;BME280;37075;44.084;2.962;2023-12-22T13:29:07;98256.97;;;12.97;60.46
50518;BME280;37075;44.084;2.962;2023-12-22T13:31:52;98239.88;;;13.00;60.78
50518;BME280;37075;44.084;2.962;2023-12-22T13:34:46;98264.38;;;12.96;60.81
50518;BME280;37075;44.084;2.962;2023-12-22T13:37:40;98275.63;;;13.04;60.91
50518;BME280;37075;44.084;2.962;2023-12-22T13:40:27;98250.31;;;13.07;61.08
50518;BME280;37075;44.084;2.962;2023-12-22T13:43:12;98260.91;;;13.08;61.25
50518;BME280;37075;44.084;2.962;2023-12-22T13:45:59;98253.97;;;13.11;61.40
50518;BME280;37075;44.084;2.962;2023-12-22T13:48:45;98254.78;;;13.11;61.67
50518;BME280;37075;44.084;2.962;2023-12-22T13:51:38;98256.91;;;13.06;62.42
50518;BME280;37075;44.084;2.962;2023-12-22T13:54:31;98261.66;;;12.96;62.54
50518;BME280;37075;44.084;2.962;2023-12-22T13:57:20;98263.13;;;12.94;62.91
50518;BME280;37075;44.084;2.962;2023-12-22T14:00:25;98270.63;;;12.85;64.46
50518;BME280;37075;44.084;2.962;2023-12-22T14:03:12;98260.41;;;12.73;64.77
50518;BME280;37075;44.084;2.962;2023-12-22T14:06:01;98272.28;;;12.56;65.55
50518;BME280;37075;44.084;2.962;2023-12-22T14:08:48;98265.09;;;12.52;65.28
50518;BME280;37075;44.084;2.962;2023-12-22T14:11:35;98280.25;;;12.49;66.00
50518;BME280;37075;44.084;2.962;2023-12-22T14:14:22;98277.53;;;12.41;66.92
50518;BME280;37075;44.084;2.962;2023-12-22T14:17:08;98280.81;;;12.34;68.90
50518;BME280;37075;44.084;2.962;2023-12-22T14:19:54;98285.41;;;12.42;68.32
50518;BME280;37075;44.084;2.962;2023-12-22T14:22:40;98286.78;;;12.57;68.44
50518;BME280;37075;44.084;2.962;2023-12-22T14:25:26;98272.69;;;12.67;67.73
50518;BME280;37075;44.084;2.962;2023-12-22T14:28:14;98276.34;;;12.71;66.43
50518;BME280;37075;44.084;2.962;2023-12-22T14:31:00;98279.09;;;12.71;64.95
50518;BME280;37075;44.084;2.962;2023-12-22T14:33:46;98293.91;;;12.70;64.09
50518;BME280;37075;44.084;2.962;2023-12-22T14:36:32;98273.44;;;12.76;63.14
50518;BME280;37075;44.084;2.962;2023-12-22T14:39:18;98293.75;;;12.75;62.20
50518;BME280;37075;44.084;2.962;2023-12-22T14:42:05;98281.50;;;12.73;60.98
50518;BME280;37075;44.084;2.962;2023-12-22T14:44:52;98286.78;;;12.78;60.75
50518;BME280;37075;44.084;2.962;2023-12-22T14:47:38;98278.25;;;12.79;60.48
50518;BME280;37075;44.084;2.962;2023-12-22T14:50:24;98276.97;;;12.77;60.10
50518;BME280;37075;44.084;2.962;2023-12-22T14:53:10;98283.09;;;12.74;60.47
50518;BME280;37075;44.084;2.962;2023-12-22T14:55:57;98287.13;;;12.76;60.45